WIII/CGK METAR and TAF weather

Enter ICAO airport designator
Station Type Date Time Source
WIII METAR 2022/01/26 14:00 UTC NOAA

WIII 261400Z 23008KT 8000 FEW020 26/25 Q1009 NOSIG


Station Type Date Time Source
WIII Decoded METAR 2022/01/26 14:00 UTC NOAA

Jakarta / Soekarno-Hatta, Indonesia (WIII) 06-07S 106-39E 8M
Jan 26, 2022 - 09:00 AM EST / 2022.01.26 1400 UTC
Wind: from the SW (230 degrees) at 9 MPH (8 KT):0
Visibility: 4 mile(s):0
Sky conditions: mostly clear
Temperature: 78 F (26 C)
Dew Point: 77 F (25 C)
Relative Humidity: 94%
Pressure (altimeter): 29.80 in. Hg (1009 hPa)
ob: WIII 261400Z 23008KT 8000 FEW020 26/25 Q1009 NOSIG
cycle: 14

Station Type Date Time Source
WIII TAF 2022/01/26 12:54 UTC NOAA

TAF WIII 261100Z 2612/2718 26005KT 7000 SCT020
BECMG 2616/2618 5000 HZ
TEMPO 2620/2623 -TSRA FEW018CB BKN019
BECMG 2623/2701 8000 NSW

Example: see airport list